Time,TemperatureF,DewpointF,PressureIn,WindDirection,WindDirectionDegrees,WindSpeedMPH,WindSpeedGustMPH,Humidity,HourlyPrecipIn,Conditions,Clouds,dailyrainin,SoftwareType,DateUTC
2013-07-06 00:05:00,71.2,70.6,30.09,SSE,157,0.0,-999.0,98,-99.99,,,0.00,Acu-Link.com,2013-07-06 04:05:00,
2013-07-06 00:20:00,71.1,70.5,30.08,South,180,0.0,-999.0,98,-99.99,,,0.00,Acu-Link.com,2013-07-06 04:20:00,
2013-07-06 00:36:00,70.9,70.3,30.09,SE,135,0.0,-999.0,98,-99.99,,,0.00,Acu-Link.com,2013-07-06 04:36:00,
2013-07-06 00:51:00,70.7,70.1,30.09,SSE,157,0.0,-999.0,98,-99.99,,,0.00,Acu-Link.com,2013-07-06 04:51:00,
2013-07-06 01:06:00,70.5,69.9,30.09,ESE,112,0.0,-999.0,98,-99.99,,,0.00,Acu-Link.com,2013-07-06 05:06:00,
2013-07-06 01:21:00,70.5,69.9,30.09,SE,135,0.0,-999.0,98,-99.99,,,0.01,Acu-Link.com,2013-07-06 05:21:00,
2013-07-06 01:37:00,70.3,69.7,30.08,SSE,157,0.0,-999.0,98,-99.99,,,0.01,Acu-Link.com,2013-07-06 05:37:00,
2013-07-06 01:52:00,70.3,69.7,30.08,SSE,157,0.0,-999.0,98,-99.99,,,0.01,Acu-Link.com,2013-07-06 05:52:00,
2013-07-06 02:07:00,70.2,69.6,30.08,NE,45,0.0,-999.0,98,-99.99,,,0.01,Acu-Link.com,2013-07-06 06:07:00,
2013-07-06 02:23:00,70.2,69.6,30.09,SW,225,0.0,-999.0,98,-99.99,,,0.01,Acu-Link.com,2013-07-06 06:23:00,
2013-07-06 02:38:00,70.2,69.6,30.08,NE,45,0.0,-999.0,98,-99.99,,,0.01,Acu-Link.com,2013-07-06 06:38:00,
2013-07-06 02:53:00,70.0,69.4,30.08,South,180,0.0,-999.0,98,-99.99,,,0.01,Acu-Link.com,2013-07-06 06:53:00,
2013-07-06 03:09:00,69.8,69.2,30.08,ENE,67,0.0,-999.0,98,-99.99,,,0.01,Acu-Link.com,2013-07-06 07:09:00,
2013-07-06 03:24:00,69.4,68.8,30.09,SSW,202,0.0,-999.0,98,-99.99,,,0.01,Acu-Link.com,2013-07-06 07:24:00,
2013-07-06 03:39:00,69.3,68.7,30.08,WSW,247,0.0,-999.0,98,-99.99,,,0.01,Acu-Link.com,2013-07-06 07:39:00,
2013-07-06 03:54:00,69.3,68.7,30.08,SSE,157,0.0,-999.0,98,-99.99,,,0.01,Acu-Link.com,2013-07-06 07:54:00,
2013-07-06 04:09:00,69.3,68.7,30.08,East,90,0.0,-999.0,98,-99.99,,,0.01,Acu-Link.com,2013-07-06 08:09:00,
2013-07-06 04:24:00,69.1,68.5,30.08,SSE,157,0.0,-999.0,98,-99.99,,,0.01,Acu-Link.com,2013-07-06 08:24:00,
2013-07-06 04:39:00,68.9,68.3,30.08,ENE,67,0.0,-999.0,98,-99.99,,,0.01,Acu-Link.com,2013-07-06 08:39:00,
2013-07-06 04:54:00,68.9,68.3,30.07,SSE,157,0.0,-999.0,98,-99.99,,,0.01,Acu-Link.com,2013-07-06 08:54:00,
2013-07-06 05:10:00,68.7,68.1,30.08,ENE,67,0.0,-999.0,98,-99.99,,,0.01,Acu-Link.com,2013-07-06 09:10:00,
2013-07-06 05:25:00,68.7,68.1,30.08,East,90,0.0,-999.0,98,-99.99,,,0.01,Acu-Link.com,2013-07-06 09:25:00,
2013-07-06 05:40:00,68.9,68.3,30.08,South,180,0.0,-999.0,98,-99.99,,,0.01,Acu-Link.com,2013-07-06 09:40:00,
2013-07-06 05:55:00,69.1,68.5,30.08,ESE,112,0.0,-999.0,98,-99.99,,,0.01,Acu-Link.com,2013-07-06 09:55:00,
2013-07-06 06:10:00,69.1,68.5,30.08,SE,135,0.0,-999.0,98,-99.99,,,0.01,Acu-Link.com,2013-07-06 10:10:00,
2013-07-06 06:25:00,69.3,68.7,30.09,SE,135,0.0,-999.0,98,-99.99,,,0.01,Acu-Link.com,2013-07-06 10:25:00,
2013-07-06 06:41:00,69.4,68.8,30.09,West,270,0.0,-999.0,98,-99.99,,,0.01,Acu-Link.com,2013-07-06 10:41:00,
2013-07-06 06:56:00,70.5,69.9,30.10,South,180,0.0,-999.0,98,-99.99,,,0.01,Acu-Link.com,2013-07-06 10:56:00,
2013-07-06 07:11:00,71.1,70.5,30.10,South,180,0.0,-999.0,98,-99.99,,,0.01,Acu-Link.com,2013-07-06 11:11:00,
2013-07-06 07:27:00,71.2,70.6,30.09,SSE,157,0.0,-999.0,98,-99.99,,,0.01,Acu-Link.com,2013-07-06 11:27:00,
2013-07-06 07:42:00,72.3,71.7,30.08,West,270,0.0,-999.0,98,-99.99,,,0.01,Acu-Link.com,2013-07-06 11:42:00,
2013-07-06 07:57:00,73.6,72.7,30.08,East,90,0.0,-999.0,97,-99.99,,,0.01,Acu-Link.com,2013-07-06 11:57:00,
2013-07-06 08:13:00,74.8,73.0,30.09,ENE,67,0.0,-999.0,94,-99.99,,,0.01,Acu-Link.com,2013-07-06 12:13:00,
2013-07-06 08:28:00,75.7,72.9,30.08,ESE,112,0.0,-999.0,91,-99.99,,,0.01,Acu-Link.com,2013-07-06 12:28:00,
2013-07-06 08:43:00,77.0,73.2,30.08,NNW,337,2.7,-999.0,88,-99.99,,,0.01,Acu-Link.com,2013-07-06 12:43:00,
2013-07-06 08:59:00,77.5,73.0,30.08,West,270,0.0,-999.0,86,-99.99,,,0.01,Acu-Link.com,2013-07-06 12:59:00,
2013-07-06 09:14:00,78.4,72.8,30.08,NE,45,0.0,-999.0,83,-99.99,,,0.01,Acu-Link.com,2013-07-06 13:14:00,
2013-07-06 09:29:00,78.8,72.1,30.08,West,270,0.0,-999.0,80,-99.99,,,0.01,Acu-Link.com,2013-07-06 13:29:00,
2013-07-06 09:45:00,78.6,71.5,30.08,SW,225,1.1,-999.0,79,-99.99,,,0.01,Acu-Link.com,2013-07-06 13:45:00,
2013-07-06 10:00:00,78.8,72.1,30.07,NNE,22,2.7,-999.0,80,-99.99,,,0.01,Acu-Link.com,2013-07-06 14:00:00,
2013-07-06 10:15:00,78.6,71.9,30.07,West,270,1.7,-999.0,80,-99.99,,,0.01,Acu-Link.com,2013-07-06 14:15:00,
2013-07-06 10:30:00,78.8,72.1,30.08,North,0,2.2,-999.0,80,-99.99,,,0.01,Acu-Link.com,2013-07-06 14:30:00,
2013-07-06 10:46:00,78.4,71.3,30.07,NW,315,1.1,-999.0,79,-99.99,,,0.01,Acu-Link.com,2013-07-06 14:46:00,
2013-07-06 11:01:00,79.3,72.2,30.07,NW,315,0.0,-999.0,79,-99.99,,,0.01,Acu-Link.com,2013-07-06 15:01:00,
2013-07-06 11:16:00,80.2,70.7,30.08,SSE,157,1.7,-999.0,73,-99.99,,,0.01,Acu-Link.com,2013-07-06 15:16:00,
2013-07-06 11:31:00,79.5,70.5,30.07,SSE,157,1.7,-999.0,74,-99.99,,,0.01,Acu-Link.com,2013-07-06 15:31:00,
2013-07-06 11:47:00,82.0,71.6,30.06,NNW,337,3.2,-999.0,71,-99.99,,,0.01,Acu-Link.com,2013-07-06 15:47:00,
2013-07-06 12:02:00,83.1,70.1,30.07,SSE,157,2.7,-999.0,65,-99.99,,,0.01,Acu-Link.com,2013-07-06 16:02:00,
2013-07-06 12:17:00,85.1,71.5,30.07,North,0,2.2,-999.0,64,-99.99,,,0.01,Acu-Link.com,2013-07-06 16:17:00,
2013-07-06 13:03:00,86.5,70.4,30.06,WNW,292,2.2,-999.0,59,-99.99,,,0.01,Acu-Link.com,2013-07-06 17:03:00,
2013-07-06 13:18:00,84.9,69.9,30.07,SW,225,1.7,-999.0,61,-99.99,,,0.01,Acu-Link.com,2013-07-06 17:18:00,
2013-07-06 13:49:00,86.2,69.7,30.06,ESE,112,1.7,-999.0,58,-99.99,,,0.01,Acu-Link.com,2013-07-06 17:49:00,
2013-07-06 14:19:00,83.8,67.9,30.05,WNW,292,1.1,-999.0,59,-99.99,,,0.01,Acu-Link.com,2013-07-06 18:19:00,
2013-07-06 15:05:00,83.3,70.3,30.04,WNW,292,1.7,-999.0,65,-99.99,,,0.01,Acu-Link.com,2013-07-06 19:05:00,
2013-07-06 15:51:00,85.3,70.3,30.03,NW,315,2.2,-999.0,61,-99.99,,,0.01,Acu-Link.com,2013-07-06 19:51:00,
2013-07-06 16:38:00,84.2,67.8,30.02,WSW,247,1.1,-999.0,58,-99.99,,,0.01,Acu-Link.com,2013-07-06 20:38:00,
2013-07-06 17:08:00,83.7,66.8,30.02,West,270,2.2,-999.0,57,-99.99,,,0.01,Acu-Link.com,2013-07-06 21:08:00,
2013-07-06 18:24:00,81.3,67.5,30.01,SW,225,0.0,-999.0,63,-99.99,,,0.01,Acu-Link.com,2013-07-06 22:24:00,
2013-07-06 18:40:00,80.2,66.4,30.02,South,180,0.0,-999.0,63,-99.99,,,0.01,Acu-Link.com,2013-07-06 22:40:00,
2013-07-06 18:55:00,79.3,66.5,30.01,West,270,0.0,-999.0,65,-99.99,,,0.01,Acu-Link.com,2013-07-06 22:55:00,
2013-07-06 19:10:00,78.6,67.6,30.01,SSW,202,1.1,-999.0,69,-99.99,,,0.01,Acu-Link.com,2013-07-06 23:10:00,
2013-07-06 19:26:00,77.9,67.7,30.02,South,180,0.0,-999.0,71,-99.99,,,0.01,Acu-Link.com,2013-07-06 23:26:00,
2013-07-06 20:12:00,75.7,68.3,30.03,South,180,0.0,-999.0,78,-99.99,,,0.01,Acu-Link.com,2013-07-07 00:12:00,
2013-07-06 20:27:00,75.0,68.4,30.02,NNW,337,0.0,-999.0,80,-99.99,,,0.01,Acu-Link.com,2013-07-07 00:27:00,
2013-07-06 20:43:00,74.1,68.6,30.03,NE,45,0.0,-999.0,83,-99.99,,,0.01,Acu-Link.com,2013-07-07 00:43:00,
2013-07-06 21:28:00,72.1,68.0,30.05,South,180,1.7,-999.0,87,-99.99,,,0.01,Acu-Link.com,2013-07-07 01:28:00,
2013-07-06 21:44:00,71.8,68.0,30.05,South,180,0.0,-999.0,88,-99.99,,,0.01,Acu-Link.com,2013-07-07 01:44:00,
2013-07-06 22:15:00,70.9,67.8,30.05,South,180,0.0,-999.0,90,-99.99,,,0.01,Acu-Link.com,2013-07-07 02:15:00,
2013-07-06 22:30:00,70.5,67.7,30.05,South,180,0.0,-999.0,91,-99.99,,,0.01,Acu-Link.com,2013-07-07 02:30:00,
2013-07-06 22:45:00,70.2,67.8,30.05,SSE,157,0.0,-999.0,92,-99.99,,,0.01,Acu-Link.com,2013-07-07 02:45:00,
2013-07-06 23:00:00,69.6,67.2,30.05,SSW,202,0.0,-999.0,92,-99.99,,,0.01,Acu-Link.com,2013-07-07 03:00:00,
2013-07-06 23:16:00,69.3,67.2,30.05,SSE,157,0.0,-999.0,93,-99.99,,,0.01,Acu-Link.com,2013-07-07 03:16:00,
2013-07-06 23:31:00,68.7,66.9,30.05,SSW,202,0.0,-999.0,94,-99.99,,,0.01,Acu-Link.com,2013-07-07 03:31:00,
2013-07-06 23:46:00,68.5,67.0,30.05,SSW,202,0.0,-999.0,95,-99.99,,,0.01,Acu-Link.com,2013-07-07 03:46:00,